Lloyd, Florida
Current Conditions -  °F | °C
As of 4:53 PM on Friday 31 Oct 2014 (Local Time) from KTLH Reporting Station
Few Clouds Few Clouds  
Wind Chill: 75°   Ceiling: Unl
Heat Index: 75°   Visibility: 10mi
Dew Point: 36°   Wind: 9mph
Humidity: 24%   Direction: 310°NW
Pressure: 29.86"   Gusts: NA
Location:  30.48°N, 84.02°W
Report Text: KTLH 312053Z 31008KT 10SM FEW050 24/02 A2986 RMK AO2 SLP110 T02390022 55013 $
Loading
Personal Weather Stations






























Interactive Weather Map
Tropical Storm Tracking
New forecast layout! Learn more

10-Day Weather Forecast

Advertisements
Track Severe Weather on mobile